createdAt,value
2022-10-13T00:00:53.602Z,101429.16
2022-10-13T00:03:31.504Z,101428.00
2022-10-13T00:08:52.655Z,101426.22
2022-10-13T00:11:31.540Z,101420.84
2022-10-13T00:14:05.427Z,101417.28
2022-10-13T00:16:52.921Z,101427.22
2022-10-13T00:19:20.860Z,101420.72
2022-10-13T00:21:49.375Z,101433.72
2022-10-13T00:24:18.472Z,101432.06
2022-10-13T00:26:48.202Z,101433.47
2022-10-13T00:29:21.745Z,101428.59
2022-10-13T00:31:59.355Z,101424.13
2022-10-13T00:34:28.833Z,101428.66
2022-10-13T00:36:58.574Z,101429.25
2022-10-13T00:39:31.426Z,101429.78
2022-10-13T00:42:03.146Z,101430.66
2022-10-13T00:44:50.712Z,101424.91
2022-10-13T00:47:20.641Z,101432.06
2022-10-13T00:49:49.263Z,101427.81
2022-10-13T00:52:19.809Z,101429.94
2022-10-13T00:54:57.670Z,101426.28
2022-10-13T00:57:31.176Z,101433.03
2022-10-13T00:59:59.635Z,101425.97
2022-10-13T01:02:38.836Z,101427.25
2022-10-13T01:05:10.812Z,101424.56
2022-10-13T01:07:49.145Z,101425.34
2022-10-13T01:10:27.280Z,101431.63
2022-10-13T01:13:12.110Z,101422.88
2022-10-13T01:16:05.489Z,101426.50
2022-10-13T01:18:39.898Z,101421.56
2022-10-13T01:21:16.347Z,101421.56
2022-10-13T01:23:59.138Z,101421.22
2022-10-13T01:26:47.858Z,101427.66
2022-10-13T01:29:35.310Z,101421.88
2022-10-13T01:32:35.126Z,101423.69
2022-10-13T01:35:27.783Z,101408.44
2022-10-13T01:38:16.457Z,101405.03
2022-10-13T01:41:15.285Z,101399.50
2022-10-13T01:44:02.537Z,101399.50
2022-10-13T01:46:45.767Z,101389.31
2022-10-13T01:49:21.764Z,101387.63
2022-10-13T01:51:52.166Z,101394.41
2022-10-13T01:54:36.321Z,101395.81
2022-10-13T01:57:17.916Z,101387.22
2022-10-13T01:59:56.211Z,101389.31
2022-10-13T02:02:49.574Z,101384.75
2022-10-13T02:05:24.898Z,101386.91
2022-10-13T02:07:55.901Z,101382.53
2022-10-13T02:10:27.043Z,101382.53
2022-10-13T02:13:03.747Z,101379.50
2022-10-13T02:15:44.544Z,101371.31
2022-10-13T02:18:25.377Z,101368.97
2022-10-13T02:20:59.736Z,101367.13
2022-10-13T02:23:30.441Z,101373.06
2022-10-13T02:26:03.030Z,101372.06
2022-10-13T02:28:30.537Z,101372.06
2022-10-13T02:31:05.845Z,101366.84
2022-10-13T02:33:43.381Z,101366.69
2022-10-13T02:36:13.054Z,101362.19
2022-10-13T02:38:53.781Z,101359.78
2022-10-13T02:46:50.711Z,101355.38
2022-10-13T02:49:25.308Z,101358.19
2022-10-13T02:52:12.379Z,101354.53
2022-10-13T02:54:57.129Z,101351.13
2022-10-13T03:00:10.982Z,101348.28
2022-10-13T03:05:23.091Z,101348.72
2022-10-13T03:07:55.251Z,101357.63
2022-10-13T03:10:24.770Z,101348.03
2022-10-13T03:13:00.076Z,101347.31
2022-10-13T03:15:30.950Z,101345.88
2022-10-13T03:18:00.781Z,101345.44
2022-10-13T03:20:27.998Z,101350.34
2022-10-13T03:23:05.575Z,101355.22
2022-10-13T03:25:37.427Z,101359.69
2022-10-13T03:28:04.744Z,101357.59
2022-10-13T03:30:31.896Z,101352.59
2022-10-13T03:33:07.296Z,101354.91
2022-10-13T03:35:47.061Z,101359.81
2022-10-13T03:38:21.689Z,101359.16
2022-10-13T03:44:28.461Z,101347.34
2022-10-13T03:46:58.302Z,101342.03
2022-10-13T03:49:25.433Z,101352.34
2022-10-13T03:51:54.715Z,101350.03
2022-10-13T03:54:29.190Z,101358.88
2022-10-13T03:57:01.466Z,101354.72
2022-10-13T03:59:38.969Z,101364.03
2022-10-13T04:02:09.403Z,101367.25
2022-10-13T04:04:44.972Z,101360.91
2022-10-13T04:07:21.582Z,101363.84
2022-10-13T04:09:51.187Z,101364.38
2022-10-13T04:12:32.782Z,101362.41
2022-10-13T04:15:08.594Z,101357.59
2022-10-13T04:17:39.796Z,101360.84
2022-10-13T04:20:09.932Z,101361.50
2022-10-13T04:25:24.432Z,101354.28
2022-10-13T04:27:51.774Z,101355.88
2022-10-13T04:30:20.557Z,101354.25
2022-10-13T04:32:47.847Z,101351.63
2022-10-13T04:35:18.583Z,101344.66
2022-10-13T04:37:47.130Z,101342.81
2022-10-13T04:42:57.375Z,101331.22
2022-10-13T04:45:24.761Z,101333.06
2022-10-13T04:48:00.868Z,101331.34
2022-10-13T04:50:28.524Z,101329.63
2022-10-13T04:53:05.623Z,101324.41
2022-10-13T04:55:35.120Z,101322.84
2022-10-13T04:58:13.736Z,101321.03
2022-10-13T05:00:46.127Z,101319.34
2022-10-13T05:03:16.326Z,101312.63
2022-10-13T05:05:47.249Z,101316.81
2022-10-13T05:08:19.962Z,101311.28
2022-10-13T05:11:03.186Z,101312.78
2022-10-13T05:13:34.855Z,101317.03
2022-10-13T05:16:08.818Z,101308.47
2022-10-13T05:18:36.380Z,101310.84
2022-10-13T05:21:10.604Z,101308.06
2022-10-13T05:23:38.774Z,101307.94
2022-10-13T05:26:10.226Z,101307.94
2022-10-13T05:28:37.657Z,101310.72
2022-10-13T05:31:13.850Z,101310.03
2022-10-13T05:33:41.688Z,101314.84
2022-10-13T05:36:12.504Z,101307.56
2022-10-13T05:38:39.496Z,101310.16
2022-10-13T05:41:08.531Z,101313.03
2022-10-13T05:43:36.228Z,101313.53
2022-10-13T05:46:03.333Z,101305.59
2022-10-13T05:48:31.084Z,101312.41
2022-10-13T05:50:59.604Z,101319.69
2022-10-13T05:53:28.684Z,101317.16
2022-10-13T05:55:58.337Z,101322.31
2022-10-13T05:58:25.424Z,101321.28
2022-10-13T06:00:52.635Z,101328.72
2022-10-13T06:03:22.532Z,101332.25
2022-10-13T06:05:49.606Z,101333.63
2022-10-13T06:08:16.823Z,101337.16
2022-10-13T06:10:44.870Z,101331.53
2022-10-13T06:13:11.913Z,101323.38
2022-10-13T06:15:39.046Z,101330.81
2022-10-13T06:18:09.883Z,101322.28
2022-10-13T06:20:36.968Z,101326.31
2022-10-13T06:23:04.048Z,101316.66
2022-10-13T06:25:32.587Z,101326.69
2022-10-13T06:28:00.545Z,101328.41
2022-10-13T06:30:28.174Z,101324.88
2022-10-13T06:32:56.076Z,101332.56
2022-10-13T06:35:23.533Z,101327.19
2022-10-13T06:37:50.673Z,101336.47
2022-10-13T06:40:17.759Z,101325.59
2022-10-13T06:42:49.240Z,101332.84
2022-10-13T06:45:16.414Z,101327.53
2022-10-13T06:47:43.563Z,101334.69
2022-10-13T06:50:11.471Z,101338.09
2022-10-13T06:52:38.585Z,101336.50
2022-10-13T06:55:05.950Z,101337.06
2022-10-13T06:57:33.625Z,101344.59
2022-10-13T07:00:05.401Z,101344.06
2022-10-13T07:02:32.459Z,101343.25
2022-10-13T07:04:59.454Z,101334.53
2022-10-13T07:07:26.823Z,101327.56
2022-10-13T07:09:54.518Z,101334.81
2022-10-13T07:12:22.415Z,101336.38
2022-10-13T07:14:49.677Z,101344.88
2022-10-13T07:17:17.091Z,101344.53
2022-10-13T07:19:47.897Z,101347.75
2022-10-13T07:22:15.516Z,101350.94
2022-10-13T07:24:42.658Z,101355.88
2022-10-13T07:27:10.151Z,101345.78
2022-10-13T07:29:37.269Z,101344.81
2022-10-13T07:32:04.487Z,101348.50
2022-10-13T07:34:31.501Z,101350.06
2022-10-13T07:36:58.641Z,101348.94
2022-10-13T07:39:25.632Z,101349.63
2022-10-13T07:41:52.733Z,101347.16
2022-10-13T07:44:19.835Z,101343.72
2022-10-13T07:46:46.911Z,101338.34
2022-10-13T07:49:16.235Z,101343.03
2022-10-13T07:51:44.303Z,101346.06
2022-10-13T07:54:11.374Z,101339.72
2022-10-13T07:56:39.850Z,101352.66
2022-10-13T07:59:07.537Z,101348.94
2022-10-13T08:01:34.629Z,101347.59
2022-10-13T08:04:01.710Z,101343.66
2022-10-13T08:06:28.893Z,101347.03
2022-10-13T08:08:58.302Z,101353.41
2022-10-13T08:11:25.736Z,101351.38
2022-10-13T08:13:53.185Z,101346.28
2022-10-13T08:16:23.201Z,101340.66
2022-10-13T08:18:50.600Z,101349.03
2022-10-13T08:24:07.338Z,101346.78
2022-10-13T08:26:34.311Z,101334.66
2022-10-13T08:34:22.871Z,101327.22
2022-10-13T08:36:53.369Z,101334.69
2022-10-13T08:39:21.976Z,101334.88
2022-10-13T08:41:49.335Z,101333.53
2022-10-13T08:47:27.006Z,101331.00
2022-10-13T08:50:00.811Z,101324.34
2022-10-13T08:52:29.840Z,101327.47
2022-10-13T08:54:57.175Z,101327.03
2022-10-13T08:57:24.449Z,101321.50
2022-10-13T08:59:52.266Z,101315.38
2022-10-13T09:02:23.755Z,101322.91
2022-10-13T09:04:52.281Z,101319.56
2022-10-13T09:07:22.071Z,101323.44
2022-10-13T09:09:50.767Z,101318.63
2022-10-13T09:12:24.984Z,101315.50
2022-10-13T09:15:00.123Z,101310.97
2022-10-13T09:17:27.894Z,101314.56
2022-10-13T09:19:58.121Z,101308.69
2022-10-13T09:22:26.726Z,101308.81
2022-10-13T09:25:09.265Z,101310.22
2022-10-13T09:27:57.921Z,101312.63
2022-10-13T09:30:38.963Z,101304.22
2022-10-13T09:33:09.232Z,101306.38
2022-10-13T09:35:37.524Z,101298.81
2022-10-13T09:38:05.909Z,101298.44
2022-10-13T09:40:33.899Z,101300.59
2022-10-13T09:43:02.255Z,101297.63
2022-10-13T09:45:31.016Z,101296.75
2022-10-13T09:47:59.751Z,101293.91
2022-10-13T09:50:27.980Z,101292.22
2022-10-13T09:53:09.469Z,101292.91
2022-10-13T09:55:36.488Z,101291.69
2022-10-13T09:58:10.595Z,101292.44
2022-10-13T10:00:39.118Z,101289.31
2022-10-13T10:03:10.917Z,101281.38
2022-10-13T10:05:47.627Z,101282.34
2022-10-13T10:08:18.244Z,101276.25
2022-10-13T10:10:47.171Z,101276.25
2022-10-13T10:13:14.812Z,101272.06
2022-10-13T10:15:42.050Z,101269.91
2022-10-13T10:18:15.566Z,101268.00
2022-10-13T10:20:49.382Z,101275.06
2022-10-13T10:23:25.767Z,101263.34
2022-10-13T10:26:01.721Z,101256.00
2022-10-13T10:28:28.884Z,101256.78
2022-10-13T10:31:02.778Z,101251.66
2022-10-13T10:33:45.011Z,101243.78
2022-10-13T10:36:17.149Z,101239.22
2022-10-13T10:38:51.929Z,101238.66
2022-10-13T10:41:37.874Z,101236.75
2022-10-13T10:44:12.694Z,101236.09
2022-10-13T10:46:46.275Z,101231.84
2022-10-13T10:49:29.299Z,101225.25
2022-10-13T10:51:56.914Z,101213.78
2022-10-13T10:55:02.477Z,101216.47
2022-10-13T10:57:36.666Z,101205.75
2022-10-13T11:00:05.638Z,101207.88
2022-10-13T11:02:41.357Z,101203.19
2022-10-13T11:05:08.637Z,101191.66
2022-10-13T11:07:38.678Z,101200.69
2022-10-13T11:10:16.567Z,101197.72
2022-10-13T11:12:46.641Z,101189.81
2022-10-13T11:15:23.883Z,101193.66
2022-10-13T11:17:51.469Z,101180.41
2022-10-13T11:20:21.428Z,101180.28
2022-10-13T11:22:57.559Z,101179.66
2022-10-13T11:25:35.642Z,101172.53
2022-10-13T11:28:21.111Z,101177.66
2022-10-13T11:31:17.361Z,101175.94
2022-10-13T11:33:45.690Z,101164.69
2022-10-13T11:36:28.204Z,101158.78
2022-10-13T11:39:05.680Z,101158.94
2022-10-13T11:41:38.829Z,101156.38
2022-10-13T11:44:13.148Z,101151.91
2022-10-13T11:47:00.165Z,101141.13
2022-10-13T11:49:45.985Z,101138.97
2022-10-13T11:52:31.954Z,101137.59
2022-10-13T11:55:05.374Z,101125.91
2022-10-13T11:57:32.890Z,101123.97
2022-10-13T12:00:03.879Z,101122.06
2022-10-13T12:02:47.378Z,101125.38
2022-10-13T12:05:21.639Z,101113.03
2022-10-13T12:07:50.324Z,101118.53
2022-10-13T12:10:24.872Z,101115.94
2022-10-13T12:12:52.022Z,101115.47
2022-10-13T12:15:28.164Z,101103.00
2022-10-13T12:17:55.247Z,101110.44
2022-10-13T12:20:25.550Z,101111.94
2022-10-13T12:22:53.467Z,101113.78
2022-10-13T12:25:21.777Z,101100.94
2022-10-13T12:27:55.763Z,101098.03
2022-10-13T12:30:26.021Z,101091.63
2022-10-13T12:32:54.211Z,101090.78
2022-10-13T12:35:26.362Z,101093.19
2022-10-13T12:37:54.909Z,101089.09
2022-10-13T12:40:22.289Z,101086.88
2022-10-13T12:42:49.867Z,101083.31
2022-10-13T12:45:18.519Z,101084.63
2022-10-13T12:47:49.283Z,101086.06
2022-10-13T12:50:25.323Z,101089.59
2022-10-13T12:52:53.294Z,101085.31
2022-10-13T12:55:21.400Z,101086.41
2022-10-13T12:57:52.275Z,101088.88
2022-10-13T13:00:19.650Z,101095.72
2022-10-13T13:02:51.201Z,101088.03
2022-10-13T13:05:33.589Z,101091.00
2022-10-13T13:08:04.862Z,101095.38
2022-10-13T13:10:32.060Z,101082.97
2022-10-13T13:13:12.640Z,101084.28
2022-10-13T13:15:41.198Z,101074.25
2022-10-13T13:18:26.490Z,101073.06
2022-10-13T13:20:54.678Z,101072.19
2022-10-13T13:23:23.329Z,101066.38
2022-10-13T13:26:19.964Z,101074.03
2022-10-13T13:28:52.171Z,101076.47
2022-10-13T13:31:20.413Z,101075.13
2022-10-13T13:33:47.771Z,101070.00
2022-10-13T13:36:17.849Z,101073.53
2022-10-13T13:38:46.866Z,101070.00
2022-10-13T13:41:14.309Z,101067.41
2022-10-13T13:43:41.562Z,101062.47
2022-10-13T13:46:22.104Z,101057.63
2022-10-13T13:48:49.514Z,101054.81
2022-10-13T13:51:16.875Z,101053.44
2022-10-13T13:53:46.076Z,101043.34
2022-10-13T13:56:13.992Z,101045.97
2022-10-13T13:58:41.032Z,101042.34
2022-10-13T14:01:08.981Z,101041.97
2022-10-13T14:03:36.049Z,101034.44
2022-10-13T14:06:05.897Z,101026.91
2022-10-13T14:08:34.248Z,101034.81
2022-10-13T14:11:05.228Z,101032.38
2022-10-13T14:13:33.136Z,101033.41
2022-10-13T14:16:01.182Z,101029.25
2022-10-13T14:18:28.609Z,101031.34
2022-10-13T14:20:55.648Z,101028.00
2022-10-13T14:23:22.697Z,101035.72
2022-10-13T14:25:49.791Z,101033.44
2022-10-13T14:28:18.482Z,101032.28
2022-10-13T14:30:45.758Z,101029.25
2022-10-13T14:33:12.787Z,101026.59
2022-10-13T14:35:39.817Z,101021.66
2022-10-13T14:38:11.279Z,101026.75
2022-10-13T14:40:41.104Z,101025.09
2022-10-13T14:43:08.131Z,101027.22
2022-10-13T14:45:35.173Z,101022.75
2022-10-13T14:48:02.386Z,101013.38
2022-10-13T14:50:30.618Z,101008.72
2022-10-13T14:52:57.881Z,101018.75
2022-10-13T14:55:25.654Z,101004.56
2022-10-13T14:57:53.036Z,101012.56
2022-10-13T15:00:20.558Z,101003.94
2022-10-13T15:02:47.817Z,101011.59
2022-10-13T15:05:15.115Z,100999.63
2022-10-13T15:07:42.514Z,101006.25
2022-10-13T15:10:10.064Z,101003.50
2022-10-13T15:12:38.379Z,101002.31
2022-10-13T15:15:05.914Z,101005.25
2022-10-13T15:17:33.838Z,101011.03
2022-10-13T15:20:01.345Z,101002.34
2022-10-13T15:22:28.566Z,101003.56
2022-10-13T15:24:55.897Z,101003.56
2022-10-13T15:27:23.727Z,101000.22
2022-10-13T15:29:51.013Z,100992.53
2022-10-13T15:32:19.135Z,100997.06
2022-10-13T15:34:51.843Z,100988.94
2022-10-13T15:37:19.102Z,100987.00
2022-10-13T15:39:46.346Z,100994.69
2022-10-13T15:42:13.574Z,100996.28
2022-10-13T15:45:08.070Z,100992.44
2022-10-13T15:47:28.144Z,100984.16
2022-10-13T15:49:55.353Z,100980.31
2022-10-13T15:52:22.981Z,100983.94
2022-10-13T15:54:51.539Z,100993.06
2022-10-13T15:57:18.835Z,100991.13
2022-10-13T15:59:46.296Z,101004.81
2022-10-13T16:02:13.657Z,100977.94
2022-10-13T16:04:40.858Z,100995.09
2022-10-13T16:07:08.066Z,100998.22
2022-10-13T16:09:35.341Z,100996.63
2022-10-13T16:12:02.485Z,100999.47
2022-10-13T16:15:00.308Z,100993.41
2022-10-13T16:17:27.536Z,100990.31
2022-10-13T16:19:55.050Z,100993.91
2022-10-13T16:22:23.054Z,100987.88
2022-10-13T16:24:50.504Z,100990.47
2022-10-13T16:27:17.830Z,100990.63
2022-10-13T16:29:45.125Z,100991.63
2022-10-13T16:32:12.381Z,100989.25
2022-10-13T16:34:40.701Z,100997.47
2022-10-13T16:37:07.914Z,100989.47
2022-10-13T16:39:39.924Z,100987.22
2022-10-13T16:42:09.441Z,100991.44
2022-10-13T16:44:36.846Z,100989.34
2022-10-13T16:47:06.291Z,100982.03
2022-10-13T16:49:34.733Z,100988.81
2022-10-13T16:52:02.511Z,100995.38
2022-10-13T16:54:29.878Z,100996.84
2022-10-13T16:57:00.991Z,100998.41
2022-10-13T16:59:31.709Z,100999.97
2022-10-13T17:01:59.353Z,101004.06
2022-10-13T17:04:26.740Z,101009.84
2022-10-13T17:06:53.977Z,101009.63
2022-10-13T17:09:21.218Z,101011.75
2022-10-13T17:11:48.570Z,101005.91
2022-10-13T17:14:15.984Z,101004.44
2022-10-13T17:16:44.158Z,101011.41
2022-10-13T17:19:12.203Z,101014.53
2022-10-13T17:21:39.686Z,101010.75
2022-10-13T17:24:09.128Z,101013.28
2022-10-13T17:26:36.636Z,101014.53
2022-10-13T17:29:03.859Z,101012.59
2022-10-13T17:31:31.036Z,101008.56
2022-10-13T17:33:59.338Z,101012.13
2022-10-13T17:36:27.649Z,101016.78
2022-10-13T17:38:55.880Z,101015.28
2022-10-13T17:41:23.695Z,101007.25
2022-10-13T17:43:51.559Z,101007.53
2022-10-13T17:46:41.331Z,101004.38
2022-10-13T17:49:10.420Z,101014.38
2022-10-13T17:51:37.628Z,101018.63
2022-10-13T17:54:04.795Z,101026.81
2022-10-13T17:56:31.925Z,101019.03
2022-10-13T17:59:00.135Z,101018.56
2022-10-13T18:01:34.122Z,101015.22
2022-10-13T18:04:06.558Z,101014.91
2022-10-13T18:06:38.565Z,101012.69
2022-10-13T18:09:10.704Z,101009.13
2022-10-13T18:11:38.064Z,101008.91
2022-10-13T18:14:05.469Z,101012.72
2022-10-13T18:16:34.105Z,101006.84
2022-10-13T18:19:01.160Z,101017.69
2022-10-13T18:21:29.141Z,101018.94
2022-10-13T18:23:56.990Z,101024.41
2022-10-13T18:26:25.131Z,101029.72
2022-10-13T18:28:52.819Z,101024.13
2022-10-13T18:31:19.912Z,101025.78
2022-10-13T18:33:47.420Z,101026.13
2022-10-13T18:36:14.741Z,101026.28
2022-10-13T18:38:43.278Z,101023.66
2022-10-13T18:41:10.396Z,101029.31
2022-10-13T18:43:37.448Z,101023.66
2022-10-13T18:46:04.981Z,101028.59
2022-10-13T18:48:32.843Z,101028.19
2022-10-13T18:51:13.240Z,101022.38
2022-10-13T18:53:41.707Z,101024.63
2022-10-13T18:56:16.319Z,101025.38
2022-10-13T18:58:43.464Z,101024.28
2022-10-13T19:01:37.276Z,101022.47
2022-10-13T19:04:04.843Z,101015.81
2022-10-13T19:06:32.654Z,101023.91
2022-10-13T19:09:00.887Z,101022.78
2022-10-13T19:11:28.605Z,101022.22
2022-10-13T19:13:55.835Z,101020.91
2022-10-13T19:16:24.931Z,101032.91
2022-10-13T19:18:52.393Z,101038.53
2022-10-13T19:21:20.263Z,101031.03
2022-10-13T19:23:48.460Z,101040.78
2022-10-13T19:26:21.626Z,101027.47
2022-10-13T19:28:48.822Z,101026.53
2022-10-13T19:31:17.555Z,101026.53
2022-10-13T19:33:46.992Z,101020.69
2022-10-13T19:36:37.702Z,101027.63
2022-10-13T19:39:06.472Z,101033.94
2022-10-13T19:41:35.603Z,101032.34
2022-10-13T19:44:04.137Z,101033.84
2022-10-13T19:46:39.229Z,101037.59
2022-10-13T19:49:07.766Z,101038.25
2022-10-13T19:51:35.829Z,101031.41
2022-10-13T19:54:03.124Z,101027.28
2022-10-13T19:56:34.168Z,101032.34
2022-10-13T19:59:02.028Z,101027.09
2022-10-13T20:01:29.096Z,101029.63
2022-10-13T20:03:57.720Z,101023.72
2022-10-13T20:06:24.746Z,101010.91
2022-10-13T20:08:51.815Z,101017.91
2022-10-13T20:11:23.820Z,101010.41
2022-10-13T20:13:51.664Z,101006.00
2022-10-13T20:16:20.757Z,101007.06
2022-10-13T20:18:54.736Z,101006.88
2022-10-13T20:21:22.426Z,101023.53
2022-10-13T20:23:49.639Z,101017.91
2022-10-13T20:26:18.964Z,101017.13
2022-10-13T20:28:46.941Z,101028.09
2022-10-13T20:31:14.969Z,101031.00
2022-10-13T20:33:43.427Z,101030.34
2022-10-13T20:36:11.975Z,101025.75
2022-10-13T20:38:39.572Z,101023.69
2022-10-13T20:41:20.908Z,101034.34
2022-10-13T20:43:48.735Z,101019.91
2022-10-13T20:46:20.245Z,101026.47
2022-10-13T20:51:35.383Z,101027.97
2022-10-13T20:54:02.705Z,101035.44
2022-10-13T20:56:29.794Z,101041.34
2022-10-13T20:58:57.124Z,101049.84
2022-10-13T21:01:24.193Z,101044.22
2022-10-13T21:03:54.626Z,101046.78
2022-10-13T21:06:22.378Z,101037.88
2022-10-13T21:08:49.463Z,101035.81
2022-10-13T21:11:17.715Z,101032.75
2022-10-13T21:13:44.938Z,101040.25
2022-10-13T21:16:13.512Z,101046.78
2022-10-13T21:18:43.276Z,101036.09
2022-10-13T21:21:10.773Z,101034.78
2022-10-13T21:23:39.660Z,101037.25
2022-10-13T21:26:07.896Z,101035.88
2022-10-13T21:28:36.482Z,101036.84
2022-10-13T21:31:04.739Z,101042.41
2022-10-13T21:33:35.725Z,101037.53
2022-10-13T21:36:09.633Z,101039.31
2022-10-13T21:38:36.835Z,101033.56
2022-10-13T21:41:04.423Z,101034.56
2022-10-13T21:43:31.496Z,101032.97
2022-10-13T21:46:07.429Z,101033.16
2022-10-13T21:48:39.136Z,101038.13
2022-10-13T21:51:12.423Z,101038.06
2022-10-13T21:53:39.601Z,101036.38
2022-10-13T21:56:07.116Z,101037.03
2022-10-13T21:58:34.959Z,101040.56
2022-10-13T22:01:02.317Z,101052.25
2022-10-13T22:03:29.437Z,101045.50
2022-10-13T22:05:56.469Z,101051.06
2022-10-13T22:08:37.523Z,101046.94
2022-10-13T22:11:10.789Z,101044.31
2022-10-13T22:13:38.288Z,101050.91
2022-10-13T22:16:06.976Z,101041.72
2022-10-13T22:18:41.429Z,101043.63
2022-10-13T22:21:11.521Z,101038.66
2022-10-13T22:23:38.526Z,101032.06
2022-10-13T22:26:05.630Z,101031.97
2022-10-13T22:28:37.014Z,101035.03
2022-10-13T22:31:05.566Z,101035.69
2022-10-13T22:33:34.084Z,101043.13
2022-10-13T22:36:01.182Z,101041.84
2022-10-13T22:38:28.259Z,101035.09
2022-10-13T22:40:55.357Z,101042.69
2022-10-13T22:43:22.427Z,101047.00
2022-10-13T22:45:50.728Z,101038.81
2022-10-13T22:48:18.939Z,101035.00
2022-10-13T22:50:46.970Z,101039.25
2022-10-13T22:53:14.006Z,101033.22
2022-10-13T22:55:41.593Z,101034.16
2022-10-13T22:58:08.654Z,101035.69
2022-10-13T23:00:36.638Z,101027.97
2022-10-13T23:03:04.166Z,101034.66
2022-10-13T23:05:31.511Z,101027.59
2022-10-13T23:07:58.577Z,101037.44
2022-10-13T23:10:26.959Z,101027.06
2022-10-13T23:12:53.993Z,101030.94
2022-10-13T23:15:20.990Z,101026.34
2022-10-13T23:17:48.039Z,101029.41
2022-10-13T23:20:15.257Z,101027.13
2022-10-13T23:22:42.220Z,101019.28
2022-10-13T23:25:09.412Z,101017.47
2022-10-13T23:27:38.060Z,101018.22
2022-10-13T23:30:05.852Z,101009.28
2022-10-13T23:32:32.879Z,101015.41
2022-10-13T23:35:00.041Z,101008.06
2022-10-13T23:37:32.365Z,101014.69
2022-10-13T23:40:00.689Z,101007.03
2022-10-13T23:42:27.640Z,101002.00
2022-10-13T23:44:54.682Z,101004.41
2022-10-13T23:47:22.004Z,101011.00
2022-10-13T23:49:49.333Z,101008.81
2022-10-13T23:52:18.301Z,101010.19
2022-10-13T23:54:45.643Z,101011.19
2022-10-13T23:57:13.628Z,101009.13
2022-10-13T23:59:40.706Z,101007.47
